sensor_id;sensor_type;location;lat;lon;timestamp;P1;durP1;ratioP1;P2;durP2;ratioP2
75820;SDS011;64454;51.984;9.838;2023-04-01T00:01:45;4.00;;;0.93;;
75820;SDS011;64454;51.984;9.838;2023-04-01T00:04:12;4.30;;;0.80;;
75820;SDS011;64454;51.984;9.838;2023-04-01T00:06:41;2.70;;;0.80;;
75820;SDS011;64454;51.984;9.838;2023-04-01T00:09:09;1.98;;;0.90;;
75820;SDS011;64454;51.984;9.838;2023-04-01T00:11:36;2.55;;;1.15;;
75820;SDS011;64454;51.984;9.838;2023-04-01T00:14:03;2.00;;;1.20;;
75820;SDS011;64454;51.984;9.838;2023-04-01T00:16:30;2.30;;;0.90;;
75820;SDS011;64454;51.984;9.838;2023-04-01T00:18:57;2.88;;;0.98;;
75820;SDS011;64454;51.984;9.838;2023-04-01T00:21:24;3.13;;;0.90;;
75820;SDS011;64454;51.984;9.838;2023-04-01T00:23:51;4.30;;;1.90;;
75820;SDS011;64454;51.984;9.838;2023-04-01T00:26:20;1.83;;;0.80;;
75820;SDS011;64454;51.984;9.838;2023-04-01T00:28:47;2.58;;;0.90;;
75820;SDS011;64454;51.984;9.838;2023-04-01T00:31:15;3.33;;;0.88;;
75820;SDS011;64454;51.984;9.838;2023-04-01T00:33:42;2.28;;;0.70;;
75820;SDS011;64454;51.984;9.838;2023-04-01T00:36:09;3.10;;;1.20;;
75820;SDS011;64454;51.984;9.838;2023-04-01T00:38:38;3.10;;;1.00;;
75820;SDS011;64454;51.984;9.838;2023-04-01T00:41:06;1.80;;;0.90;;
75820;SDS011;64454;51.984;9.838;2023-04-01T00:43:36;1.75;;;0.65;;
75820;SDS011;64454;51.984;9.838;2023-04-01T00:46:02;2.03;;;0.98;;
75820;SDS011;64454;51.984;9.838;2023-04-01T00:48:30;2.75;;;0.82;;
75820;SDS011;64454;51.984;9.838;2023-04-01T00:51:02;3.20;;;0.70;;
75820;SDS011;64454;51.984;9.838;2023-04-01T00:53:34;1.98;;;1.05;;
75820;SDS011;64454;51.984;9.838;2023-04-01T00:56:09;1.52;;;0.70;;
75820;SDS011;64454;51.984;9.838;2023-04-01T00:58:43;2.10;;;0.70;;
75820;SDS011;64454;51.984;9.838;2023-04-01T01:01:15;5.05;;;1.20;;
75820;SDS011;64454;51.984;9.838;2023-04-01T01:03:42;2.38;;;1.13;;
75820;SDS011;64454;51.984;9.838;2023-04-01T01:06:10;2.50;;;1.10;;
75820;SDS011;64454;51.984;9.838;2023-04-01T01:09:11;2.40;;;0.90;;
75820;SDS011;64454;51.984;9.838;2023-04-01T01:11:53;2.40;;;0.75;;
75820;SDS011;64454;51.984;9.838;2023-04-01T01:14:32;1.98;;;0.80;;
75820;SDS011;64454;51.984;9.838;2023-04-01T01:17:16;1.40;;;0.90;;
75820;SDS011;64454;51.984;9.838;2023-04-01T01:19:57;2.47;;;0.93;;
75820;SDS011;64454;51.984;9.838;2023-04-01T01:23:11;2.38;;;0.90;;
75820;SDS011;64454;51.984;9.838;2023-04-01T01:26:20;2.05;;;1.23;;
75820;SDS011;64454;51.984;9.838;2023-04-01T01:32:50;3.83;;;1.20;;
75820;SDS011;64454;51.984;9.838;2023-04-01T01:35:49;1.70;;;0.88;;
75820;SDS011;64454;51.984;9.838;2023-04-01T01:38:21;2.40;;;0.90;;
75820;SDS011;64454;51.984;9.838;2023-04-01T01:40:50;4.47;;;0.88;;
75820;SDS011;64454;51.984;9.838;2023-04-01T01:43:20;2.45;;;0.80;;
75820;SDS011;64454;51.984;9.838;2023-04-01T01:45:51;4.43;;;1.00;;
75820;SDS011;64454;51.984;9.838;2023-04-01T01:48:22;3.17;;;1.02;;
75820;SDS011;64454;51.984;9.838;2023-04-01T01:50:53;2.25;;;0.80;;
75820;SDS011;64454;51.984;9.838;2023-04-01T01:53:20;2.40;;;1.00;;
75820;SDS011;64454;51.984;9.838;2023-04-01T01:55:47;1.43;;;0.80;;
75820;SDS011;64454;51.984;9.838;2023-04-01T01:58:16;3.10;;;1.10;;
75820;SDS011;64454;51.984;9.838;2023-04-01T02:00:50;2.88;;;1.20;;
75820;SDS011;64454;51.984;9.838;2023-04-01T02:03:22;3.65;;;0.80;;
75820;SDS011;64454;51.984;9.838;2023-04-01T02:05:55;2.70;;;1.20;;
75820;SDS011;64454;51.984;9.838;2023-04-01T02:08:26;2.55;;;1.30;;
75820;SDS011;64454;51.984;9.838;2023-04-01T02:11:00;3.20;;;1.00;;
75820;SDS011;64454;51.984;9.838;2023-04-01T02:13:31;2.70;;;0.95;;
75820;SDS011;64454;51.984;9.838;2023-04-01T02:16:05;1.45;;;0.90;;
75820;SDS011;64454;51.984;9.838;2023-04-01T02:18:39;3.30;;;1.30;;
75820;SDS011;64454;51.984;9.838;2023-04-01T02:21:12;2.50;;;1.40;;
75820;SDS011;64454;51.984;9.838;2023-04-01T02:23:40;1.65;;;1.00;;
75820;SDS011;64454;51.984;9.838;2023-04-01T02:26:08;2.20;;;1.20;;
75820;SDS011;64454;51.984;9.838;2023-04-01T02:28:38;4.47;;;1.27;;
75820;SDS011;64454;51.984;9.838;2023-04-01T02:31:07;2.30;;;1.00;;
75820;SDS011;64454;51.984;9.838;2023-04-01T02:33:36;1.20;;;0.90;;
75820;SDS011;64454;51.984;9.838;2023-04-01T02:36:05;4.20;;;1.02;;
75820;SDS011;64454;51.984;9.838;2023-04-01T02:38:38;2.50;;;0.88;;
75820;SDS011;64454;51.984;9.838;2023-04-01T02:41:06;4.63;;;0.90;;
75820;SDS011;64454;51.984;9.838;2023-04-01T02:43:33;1.60;;;0.80;;
75820;SDS011;64454;51.984;9.838;2023-04-01T02:46:00;1.88;;;1.00;;
75820;SDS011;64454;51.984;9.838;2023-04-01T02:48:27;2.10;;;1.00;;
75820;SDS011;64454;51.984;9.838;2023-04-01T02:50:54;2.30;;;0.90;;
75820;SDS011;64454;51.984;9.838;2023-04-01T02:53:23;1.10;;;0.90;;
75820;SDS011;64454;51.984;9.838;2023-04-01T02:55:50;2.97;;;1.08;;
75820;SDS011;64454;51.984;9.838;2023-04-01T02:58:17;1.60;;;0.90;;
75820;SDS011;64454;51.984;9.838;2023-04-01T03:00:44;2.17;;;0.80;;
75820;SDS011;64454;51.984;9.838;2023-04-01T03:03:12;3.97;;;1.37;;
75820;SDS011;64454;51.984;9.838;2023-04-01T03:05:39;3.53;;;1.10;;
75820;SDS011;64454;51.984;9.838;2023-04-01T03:08:06;2.30;;;0.80;;
75820;SDS011;64454;51.984;9.838;2023-04-01T03:10:35;2.38;;;0.85;;
75820;SDS011;64454;51.984;9.838;2023-04-01T03:13:01;2.88;;;1.40;;
75820;SDS011;64454;51.984;9.838;2023-04-01T03:15:28;1.60;;;0.80;;
75820;SDS011;64454;51.984;9.838;2023-04-01T03:17:55;2.70;;;0.98;;
75820;SDS011;64454;51.984;9.838;2023-04-01T03:20:22;3.20;;;0.90;;
75820;SDS011;64454;51.984;9.838;2023-04-01T03:22:49;3.15;;;0.88;;
75820;SDS011;64454;51.984;9.838;2023-04-01T03:25:16;3.10;;;0.90;;
75820;SDS011;64454;51.984;9.838;2023-04-01T03:27:45;2.65;;;0.90;;
75820;SDS011;64454;51.984;9.838;2023-04-01T03:30:12;2.63;;;1.07;;
75820;SDS011;64454;51.984;9.838;2023-04-01T03:32:39;2.20;;;0.90;;
75820;SDS011;64454;51.984;9.838;2023-04-01T03:35:06;2.20;;;0.97;;
75820;SDS011;64454;51.984;9.838;2023-04-01T03:37:34;1.80;;;1.10;;
75820;SDS011;64454;51.984;9.838;2023-04-01T03:40:01;3.83;;;0.95;;
75820;SDS011;64454;51.984;9.838;2023-04-01T03:42:29;1.50;;;0.88;;
75820;SDS011;64454;51.984;9.838;2023-04-01T03:44:58;2.25;;;1.38;;
75820;SDS011;64454;51.984;9.838;2023-04-01T03:47:25;1.50;;;0.80;;
75820;SDS011;64454;51.984;9.838;2023-04-01T03:49:52;2.38;;;0.85;;
75820;SDS011;64454;51.984;9.838;2023-04-01T03:52:19;1.77;;;0.90;;
75820;SDS011;64454;51.984;9.838;2023-04-01T03:54:46;1.60;;;0.80;;
75820;SDS011;64454;51.984;9.838;2023-04-01T03:57:12;1.90;;;0.70;;
75820;SDS011;64454;51.984;9.838;2023-04-01T03:59:39;2.80;;;0.90;;
75820;SDS011;64454;51.984;9.838;2023-04-01T04:02:07;2.30;;;1.00;;
75820;SDS011;64454;51.984;9.838;2023-04-01T04:04:34;4.83;;;1.10;;
75820;SDS011;64454;51.984;9.838;2023-04-01T04:07:01;2.20;;;0.70;;
75820;SDS011;64454;51.984;9.838;2023-04-01T04:09:29;2.17;;;0.73;;
75820;SDS011;64454;51.984;9.838;2023-04-01T04:11:56;2.00;;;0.77;;
75820;SDS011;64454;51.984;9.838;2023-04-01T04:14:23;2.20;;;0.80;;
75820;SDS011;64454;51.984;9.838;2023-04-01T04:16:50;3.70;;;1.25;;
75820;SDS011;64454;51.984;9.838;2023-04-01T04:19:20;2.60;;;0.90;;
75820;SDS011;64454;51.984;9.838;2023-04-01T04:21:46;2.63;;;1.20;;
75820;SDS011;64454;51.984;9.838;2023-04-01T04:24:13;5.10;;;1.00;;
75820;SDS011;64454;51.984;9.838;2023-04-01T04:26:42;2.90;;;0.90;;
75820;SDS011;64454;51.984;9.838;2023-04-01T04:29:09;3.03;;;1.40;;
75820;SDS011;64454;51.984;9.838;2023-04-01T04:31:37;2.50;;;1.05;;
75820;SDS011;64454;51.984;9.838;2023-04-01T04:34:04;2.03;;;1.30;;
75820;SDS011;64454;51.984;9.838;2023-04-01T04:36:32;3.15;;;0.82;;
75820;SDS011;64454;51.984;9.838;2023-04-01T04:38:59;2.15;;;1.00;;
75820;SDS011;64454;51.984;9.838;2023-04-01T04:41:27;1.30;;;1.13;;
75820;SDS011;64454;51.984;9.838;2023-04-01T04:43:54;2.78;;;1.10;;
75820;SDS011;64454;51.984;9.838;2023-04-01T04:46:23;2.13;;;1.00;;
75820;SDS011;64454;51.984;9.838;2023-04-01T04:48:51;2.00;;;1.00;;
75820;SDS011;64454;51.984;9.838;2023-04-01T04:51:19;2.47;;;1.00;;
75820;SDS011;64454;51.984;9.838;2023-04-01T04:53:49;1.30;;;0.90;;
75820;SDS011;64454;51.984;9.838;2023-04-01T04:56:17;2.38;;;1.30;;
75820;SDS011;64454;51.984;9.838;2023-04-01T04:58:45;2.90;;;1.07;;
75820;SDS011;64454;51.984;9.838;2023-04-01T05:01:12;1.70;;;1.00;;
75820;SDS011;64454;51.984;9.838;2023-04-01T05:03:42;2.55;;;1.20;;
75820;SDS011;64454;51.984;9.838;2023-04-01T05:06:27;4.43;;;1.15;;
75820;SDS011;64454;51.984;9.838;2023-04-01T05:09:16;1.83;;;1.40;;
75820;SDS011;64454;51.984;9.838;2023-04-01T05:12:03;2.90;;;1.15;;
75820;SDS011;64454;51.984;9.838;2023-04-01T05:14:51;3.10;;;1.50;;
75820;SDS011;64454;51.984;9.838;2023-04-01T05:17:38;2.90;;;1.35;;
75820;SDS011;64454;51.984;9.838;2023-04-01T05:20:05;2.88;;;1.20;;
75820;SDS011;64454;51.984;9.838;2023-04-01T05:22:33;2.50;;;1.10;;
75820;SDS011;64454;51.984;9.838;2023-04-01T05:25:01;3.65;;;1.30;;
75820;SDS011;64454;51.984;9.838;2023-04-01T05:27:28;3.75;;;1.10;;
75820;SDS011;64454;51.984;9.838;2023-04-01T05:29:55;3.80;;;1.00;;
75820;SDS011;64454;51.984;9.838;2023-04-01T05:32:21;2.63;;;1.33;;
75820;SDS011;64454;51.984;9.838;2023-04-01T05:34:49;4.68;;;1.10;;
75820;SDS011;64454;51.984;9.838;2023-04-01T05:37:16;2.28;;;0.95;;
75820;SDS011;64454;51.984;9.838;2023-04-01T05:39:43;2.72;;;1.00;;
75820;SDS011;64454;51.984;9.838;2023-04-01T05:42:11;2.65;;;1.10;;
75820;SDS011;64454;51.984;9.838;2023-04-01T05:44:38;2.70;;;1.10;;
75820;SDS011;64454;51.984;9.838;2023-04-01T05:47:05;3.72;;;0.95;;
75820;SDS011;64454;51.984;9.838;2023-04-01T05:49:32;3.70;;;1.20;;
75820;SDS011;64454;51.984;9.838;2023-04-01T05:52:00;2.40;;;1.05;;
75820;SDS011;64454;51.984;9.838;2023-04-01T05:54:26;3.70;;;1.00;;
75820;SDS011;64454;51.984;9.838;2023-04-01T05:56:53;1.65;;;1.10;;
75820;SDS011;64454;51.984;9.838;2023-04-01T05:59:22;2.45;;;1.00;;
75820;SDS011;64454;51.984;9.838;2023-04-01T06:01:48;3.92;;;0.80;;
75820;SDS011;64454;51.984;9.838;2023-04-01T06:04:17;2.20;;;1.10;;
75820;SDS011;64454;51.984;9.838;2023-04-01T06:06:45;3.60;;;0.87;;
75820;SDS011;64454;51.984;9.838;2023-04-01T06:09:14;3.30;;;1.30;;
75820;SDS011;64454;51.984;9.838;2023-04-01T06:11:54;2.40;;;1.05;;
75820;SDS011;64454;51.984;9.838;2023-04-01T06:14:48;1.77;;;0.90;;
75820;SDS011;64454;51.984;9.838;2023-04-01T06:17:30;2.30;;;1.30;;
75820;SDS011;64454;51.984;9.838;2023-04-01T06:20:19;2.35;;;0.90;;
75820;SDS011;64454;51.984;9.838;2023-04-01T06:23:00;1.20;;;0.82;;
75820;SDS011;64454;51.984;9.838;2023-04-01T06:26:02;2.08;;;1.13;;
75820;SDS011;64454;51.984;9.838;2023-04-01T06:28:49;1.80;;;0.90;;
75820;SDS011;64454;51.984;9.838;2023-04-01T06:32:22;3.10;;;0.90;;
75820;SDS011;64454;51.984;9.838;2023-04-01T06:38:27;2.65;;;0.90;;
75820;SDS011;64454;51.984;9.838;2023-04-01T06:41:12;4.47;;;1.20;;
75820;SDS011;64454;51.984;9.838;2023-04-01T06:44:05;1.80;;;0.82;;
75820;SDS011;64454;51.984;9.838;2023-04-01T06:46:44;3.03;;;0.90;;
75820;SDS011;64454;51.984;9.838;2023-04-01T06:49:24;4.75;;;1.20;;
75820;SDS011;64454;51.984;9.838;2023-04-01T06:52:06;2.23;;;0.80;;
75820;SDS011;64454;51.984;9.838;2023-04-01T06:54:50;3.28;;;1.20;;
75820;SDS011;64454;51.984;9.838;2023-04-01T06:57:28;3.00;;;0.80;;
75820;SDS011;64454;51.984;9.838;2023-04-01T07:00:02;2.08;;;0.80;;
75820;SDS011;64454;51.984;9.838;2023-04-01T07:02:41;3.63;;;1.20;;
75820;SDS011;64454;51.984;9.838;2023-04-01T07:05:19;1.40;;;1.00;;
75820;SDS011;64454;51.984;9.838;2023-04-01T07:07:49;1.55;;;0.80;;
75820;SDS011;64454;51.984;9.838;2023-04-01T07:10:25;1.33;;;0.60;;
75820;SDS011;64454;51.984;9.838;2023-04-01T07:13:02;1.60;;;0.70;;
75820;SDS011;64454;51.984;9.838;2023-04-01T07:15:39;3.92;;;1.38;;
75820;SDS011;64454;51.984;9.838;2023-04-01T07:18:10;3.80;;;1.00;;
75820;SDS011;64454;51.984;9.838;2023-04-01T07:20:44;2.63;;;0.80;;
75820;SDS011;64454;51.984;9.838;2023-04-01T07:23:15;2.92;;;0.80;;
75820;SDS011;64454;51.984;9.838;2023-04-01T07:25:51;2.20;;;0.73;;
75820;SDS011;64454;51.984;9.838;2023-04-01T07:28:26;1.00;;;0.80;;
75820;SDS011;64454;51.984;9.838;2023-04-01T07:31:02;1.05;;;0.50;;
75820;SDS011;64454;51.984;9.838;2023-04-01T07:33:46;2.40;;;0.80;;
75820;SDS011;64454;51.984;9.838;2023-04-01T07:36:26;1.50;;;0.70;;
75820;SDS011;64454;51.984;9.838;2023-04-01T07:39:06;3.03;;;0.80;;
75820;SDS011;64454;51.984;9.838;2023-04-01T07:41:50;1.83;;;0.75;;
75820;SDS011;64454;51.984;9.838;2023-04-01T07:44:25;2.60;;;0.80;;
75820;SDS011;64454;51.984;9.838;2023-04-01T07:47:10;2.60;;;0.80;;
75820;SDS011;64454;51.984;9.838;2023-04-01T07:50:07;1.60;;;0.80;;
75820;SDS011;64454;51.984;9.838;2023-04-01T07:52:49;2.70;;;0.80;;
75820;SDS011;64454;51.984;9.838;2023-04-01T07:55:34;1.40;;;0.50;;
75820;SDS011;64454;51.984;9.838;2023-04-01T07:58:11;1.75;;;0.82;;
75820;SDS011;64454;51.984;9.838;2023-04-01T08:00:48;1.77;;;0.70;;
75820;SDS011;64454;51.984;9.838;2023-04-01T08:03:29;3.72;;;0.80;;
75820;SDS011;64454;51.984;9.838;2023-04-01T08:06:18;1.25;;;0.70;;
75820;SDS011;64454;51.984;9.838;2023-04-01T08:08:58;2.00;;;0.95;;
75820;SDS011;64454;51.984;9.838;2023-04-01T08:11:41;2.20;;;0.70;;
75820;SDS011;64454;51.984;9.838;2023-04-01T08:14:28;1.60;;;0.90;;
75820;SDS011;64454;51.984;9.838;2023-04-01T08:17:05;1.85;;;0.70;;
75820;SDS011;64454;51.984;9.838;2023-04-01T08:19:48;0.93;;;0.57;;
75820;SDS011;64454;51.984;9.838;2023-04-01T08:22:35;1.75;;;0.70;;
75820;SDS011;64454;51.984;9.838;2023-04-01T08:25:10;2.10;;;0.70;;
75820;SDS011;64454;51.984;9.838;2023-04-01T08:27:46;1.15;;;0.50;;
75820;SDS011;64454;51.984;9.838;2023-04-01T08:30:20;1.20;;;0.60;;
75820;SDS011;64454;51.984;9.838;2023-04-01T08:32:52;4.30;;;0.80;;
75820;SDS011;64454;51.984;9.838;2023-04-01T08:35:26;1.50;;;0.63;;
75820;SDS011;64454;51.984;9.838;2023-04-01T08:37:58;2.40;;;1.07;;
75820;SDS011;64454;51.984;9.838;2023-04-01T08:43:29;1.50;;;0.60;;
75820;SDS011;64454;51.984;9.838;2023-04-01T08:46:26;3.40;;;0.90;;
75820;SDS011;64454;51.984;9.838;2023-04-01T08:49:38;0.90;;;0.52;;
75820;SDS011;64454;51.984;9.838;2023-04-01T08:52:30;2.10;;;0.70;;
75820;SDS011;64454;51.984;9.838;2023-04-01T08:55:04;1.02;;;0.68;;
75820;SDS011;64454;51.984;9.838;2023-04-01T08:58:02;1.35;;;0.90;;
75820;SDS011;64454;51.984;9.838;2023-04-01T09:00:50;1.25;;;0.73;;
75820;SDS011;64454;51.984;9.838;2023-04-01T09:03:31;2.00;;;1.00;;
75820;SDS011;64454;51.984;9.838;2023-04-01T09:06:25;1.08;;;0.70;;
75820;SDS011;64454;51.984;9.838;2023-04-01T09:12:31;1.30;;;0.70;;
75820;SDS011;64454;51.984;9.838;2023-04-01T09:15:21;1.00;;;0.80;;
75820;SDS011;64454;51.984;9.838;2023-04-01T09:18:09;2.10;;;0.73;;
75820;SDS011;64454;51.984;9.838;2023-04-01T09:21:22;2.05;;;0.80;;
75820;SDS011;64454;51.984;9.838;2023-04-01T09:24:24;1.20;;;0.70;;
75820;SDS011;64454;51.984;9.838;2023-04-01T09:27:08;3.60;;;0.60;;
75820;SDS011;64454;51.984;9.838;2023-04-01T09:29:52;3.33;;;0.68;;
75820;SDS011;64454;51.984;9.838;2023-04-01T09:36:19;1.10;;;0.60;;
75820;SDS011;64454;51.984;9.838;2023-04-01T09:39:26;2.70;;;0.85;;
75820;SDS011;64454;51.984;9.838;2023-04-01T09:42:07;2.33;;;1.20;;
75820;SDS011;64454;51.984;9.838;2023-04-01T09:44:56;1.70;;;0.73;;
75820;SDS011;64454;51.984;9.838;2023-04-01T09:47:29;1.23;;;0.63;;
75820;SDS011;64454;51.984;9.838;2023-04-01T09:50:24;1.77;;;0.80;;
75820;SDS011;64454;51.984;9.838;2023-04-01T09:53:07;1.65;;;0.90;;
75820;SDS011;64454;51.984;9.838;2023-04-01T09:55:56;1.63;;;0.68;;
75820;SDS011;64454;51.984;9.838;2023-04-01T10:02:32;3.20;;;1.38;;
75820;SDS011;64454;51.984;9.838;2023-04-01T10:05:49;1.40;;;0.70;;
75820;SDS011;64454;51.984;9.838;2023-04-01T10:09:06;1.20;;;0.80;;
75820;SDS011;64454;51.984;9.838;2023-04-01T10:12:24;2.40;;;0.70;;
75820;SDS011;64454;51.984;9.838;2023-04-01T10:15:25;1.60;;;0.70;;
75820;SDS011;64454;51.984;9.838;2023-04-01T10:24:33;4.22;;;1.20;;
75820;SDS011;64454;51.984;9.838;2023-04-01T10:27:32;2.45;;;0.98;;
75820;SDS011;64454;51.984;9.838;2023-04-01T10:30:49;2.00;;;0.60;;
75820;SDS011;64454;51.984;9.838;2023-04-01T10:34:05;1.05;;;0.60;;
75820;SDS011;64454;51.984;9.838;2023-04-01T10:37:04;1.80;;;0.93;;
75820;SDS011;64454;51.984;9.838;2023-04-01T10:40:06;1.70;;;1.10;;
75820;SDS011;64454;51.984;9.838;2023-04-01T10:49:49;1.55;;;0.90;;
75820;SDS011;64454;51.984;9.838;2023-04-01T10:53:11;1.20;;;0.90;;
75820;SDS011;64454;51.984;9.838;2023-04-01T10:56:09;1.00;;;0.70;;
75820;SDS011;64454;51.984;9.838;2023-04-01T11:02:33;1.67;;;0.70;;
75820;SDS011;64454;51.984;9.838;2023-04-01T11:05:39;1.60;;;0.80;;
75820;SDS011;64454;51.984;9.838;2023-04-01T11:12:31;16.80;;;12.35;;
75820;SDS011;64454;51.984;9.838;2023-04-01T11:22:26;0.93;;;0.60;;
75820;SDS011;64454;51.984;9.838;2023-04-01T11:25:22;1.13;;;0.60;;
75820;SDS011;64454;51.984;9.838;2023-04-01T11:28:24;1.60;;;0.90;;
75820;SDS011;64454;51.984;9.838;2023-04-01T11:31:35;1.90;;;0.60;;
75820;SDS011;64454;51.984;9.838;2023-04-01T11:34:23;2.78;;;0.90;;
75820;SDS011;64454;51.984;9.838;2023-04-01T11:37:25;2.17;;;0.63;;
75820;SDS011;64454;51.984;9.838;2023-04-01T11:40:07;1.65;;;0.70;;
75820;SDS011;64454;51.984;9.838;2023-04-01T11:42:53;1.10;;;0.60;;
75820;SDS011;64454;51.984;9.838;2023-04-01T11:45:31;1.38;;;0.70;;
75820;SDS011;64454;51.984;9.838;2023-04-01T11:48:07;1.50;;;0.70;;
75820;SDS011;64454;51.984;9.838;2023-04-01T11:50:57;2.92;;;0.82;;
75820;SDS011;64454;51.984;9.838;2023-04-01T11:53:56;1.02;;;0.50;;
75820;SDS011;64454;51.984;9.838;2023-04-01T11:56:40;1.80;;;0.70;;
75820;SDS011;64454;51.984;9.838;2023-04-01T12:02:29;3.80;;;1.00;;
75820;SDS011;64454;51.984;9.838;2023-04-01T12:05:22;4.28;;;1.10;;
75820;SDS011;64454;51.984;9.838;2023-04-01T12:08:08;2.10;;;0.80;;
75820;SDS011;64454;51.984;9.838;2023-04-01T12:10:48;1.95;;;0.98;;
75820;SDS011;64454;51.984;9.838;2023-04-01T12:13:31;1.52;;;0.50;;
75820;SDS011;64454;51.984;9.838;2023-04-01T12:16:25;2.40;;;0.90;;
75820;SDS011;64454;51.984;9.838;2023-04-01T12:19:09;1.40;;;0.50;;
75820;SDS011;64454;51.984;9.838;2023-04-01T12:21:52;1.40;;;0.40;;
75820;SDS011;64454;51.984;9.838;2023-04-01T12:24:55;3.90;;;1.50;;
75820;SDS011;64454;51.984;9.838;2023-04-01T12:27:40;1.55;;;0.65;;
75820;SDS011;64454;51.984;9.838;2023-04-01T12:30:37;1.00;;;0.40;;
75820;SDS011;64454;51.984;9.838;2023-04-01T12:33:40;1.60;;;0.40;;
75820;SDS011;64454;51.984;9.838;2023-04-01T12:36:46;0.98;;;0.40;;
75820;SDS011;64454;51.984;9.838;2023-04-01T12:39:33;0.80;;;0.50;;
75820;SDS011;64454;51.984;9.838;2023-04-01T12:42:31;1.80;;;1.10;;
75820;SDS011;64454;51.984;9.838;2023-04-01T12:45:23;0.93;;;0.50;;
75820;SDS011;64454;51.984;9.838;2023-04-01T12:48:05;0.90;;;0.70;;
75820;SDS011;64454;51.984;9.838;2023-04-01T12:51:05;1.40;;;0.63;;
75820;SDS011;64454;51.984;9.838;2023-04-01T12:57:19;1.80;;;0.80;;
75820;SDS011;64454;51.984;9.838;2023-04-01T13:00:23;0.77;;;0.40;;
75820;SDS011;64454;51.984;9.838;2023-04-01T13:03:16;1.63;;;0.50;;
75820;SDS011;64454;51.984;9.838;2023-04-01T13:06:12;1.57;;;0.63;;
75820;SDS011;64454;51.984;9.838;2023-04-01T13:08:57;1.70;;;1.00;;
75820;SDS011;64454;51.984;9.838;2023-04-01T13:11:47;1.50;;;0.80;;
75820;SDS011;64454;51.984;9.838;2023-04-01T13:17:36;1.83;;;1.20;;
75820;SDS011;64454;51.984;9.838;2023-04-01T13:20:16;2.85;;;2.00;;
75820;SDS011;64454;51.984;9.838;2023-04-01T13:23:03;2.10;;;1.27;;
75820;SDS011;64454;51.984;9.838;2023-04-01T13:25:45;1.50;;;0.90;;
75820;SDS011;64454;51.984;9.838;2023-04-01T13:28:28;1.58;;;0.73;;
75820;SDS011;64454;51.984;9.838;2023-04-01T13:31:05;4.70;;;1.75;;
75820;SDS011;64454;51.984;9.838;2023-04-01T13:34:00;3.27;;;1.80;;
75820;SDS011;64454;51.984;9.838;2023-04-01T13:36:48;1.20;;;0.70;;
75820;SDS011;64454;51.984;9.838;2023-04-01T13:39:35;1.70;;;0.70;;
75820;SDS011;64454;51.984;9.838;2023-04-01T13:42:20;2.40;;;1.70;;
75820;SDS011;64454;51.984;9.838;2023-04-01T13:44:54;2.45;;;1.98;;
75820;SDS011;64454;51.984;9.838;2023-04-01T13:47:38;1.30;;;0.90;;
75820;SDS011;64454;51.984;9.838;2023-04-01T13:50:52;1.15;;;0.80;;
75820;SDS011;64454;51.984;9.838;2023-04-01T13:54:09;1.30;;;0.70;;
75820;SDS011;64454;51.984;9.838;2023-04-01T13:57:00;0.90;;;0.60;;
75820;SDS011;64454;51.984;9.838;2023-04-01T14:02:58;1.00;;;0.68;;
75820;SDS011;64454;51.984;9.838;2023-04-01T14:05:56;2.00;;;0.90;;
75820;SDS011;64454;51.984;9.838;2023-04-01T14:08:55;1.20;;;0.80;;
75820;SDS011;64454;51.984;9.838;2023-04-01T14:11:49;1.55;;;0.80;;
75820;SDS011;64454;51.984;9.838;2023-04-01T14:14:31;1.95;;;1.17;;
75820;SDS011;64454;51.984;9.838;2023-04-01T14:17:21;1.50;;;0.80;;
75820;SDS011;64454;51.984;9.838;2023-04-01T14:23:13;1.10;;;0.90;;
75820;SDS011;64454;51.984;9.838;2023-04-01T14:26:05;1.10;;;0.70;;
75820;SDS011;64454;51.984;9.838;2023-04-01T14:28:45;2.17;;;1.35;;
75820;SDS011;64454;51.984;9.838;2023-04-01T14:31:30;1.67;;;1.10;;
75820;SDS011;64454;51.984;9.838;2023-04-01T14:34:11;2.40;;;1.00;;
75820;SDS011;64454;51.984;9.838;2023-04-01T14:37:01;1.10;;;0.80;;
75820;SDS011;64454;51.984;9.838;2023-04-01T14:39:59;1.40;;;0.80;;
75820;SDS011;64454;51.984;9.838;2023-04-01T14:42:59;1.83;;;0.70;;
75820;SDS011;64454;51.984;9.838;2023-04-01T14:46:05;2.15;;;0.90;;
75820;SDS011;64454;51.984;9.838;2023-04-01T14:49:14;1.75;;;0.90;;
75820;SDS011;64454;51.984;9.838;2023-04-01T14:51:48;1.52;;;1.10;;
75820;SDS011;64454;51.984;9.838;2023-04-01T14:54:19;2.15;;;1.20;;
75820;SDS011;64454;51.984;9.838;2023-04-01T14:57:02;1.90;;;0.70;;
75820;SDS011;64454;51.984;9.838;2023-04-01T14:59:39;1.90;;;0.68;;
75820;SDS011;64454;51.984;9.838;2023-04-01T15:02:17;2.35;;;0.98;;
75820;SDS011;64454;51.984;9.838;2023-04-01T15:05:10;3.03;;;0.80;;
75820;SDS011;64454;51.984;9.838;2023-04-01T15:16:54;1.30;;;1.00;;
75820;SDS011;64454;51.984;9.838;2023-04-01T15:19:38;1.33;;;1.10;;
75820;SDS011;64454;51.984;9.838;2023-04-01T15:22:26;1.45;;;0.90;;
75820;SDS011;64454;51.984;9.838;2023-04-01T15:25:17;1.15;;;0.80;;
75820;SDS011;64454;51.984;9.838;2023-04-01T15:28:08;2.10;;;0.95;;
75820;SDS011;64454;51.984;9.838;2023-04-01T15:30:47;1.10;;;0.93;;
75820;SDS011;64454;51.984;9.838;2023-04-01T15:33:27;1.40;;;0.90;;
75820;SDS011;64454;51.984;9.838;2023-04-01T15:36:26;1.30;;;1.00;;
75820;SDS011;64454;51.984;9.838;2023-04-01T15:39:10;1.02;;;0.60;;
75820;SDS011;64454;51.984;9.838;2023-04-01T15:41:48;1.70;;;0.70;;
75820;SDS011;64454;51.984;9.838;2023-04-01T15:47:35;0.70;;;0.40;;
75820;SDS011;64454;51.984;9.838;2023-04-01T15:50:22;0.95;;;0.57;;
75820;SDS011;64454;51.984;9.838;2023-04-01T15:53:11;0.77;;;0.50;;
75820;SDS011;64454;51.984;9.838;2023-04-01T15:56:07;0.95;;;0.52;;
75820;SDS011;64454;51.984;9.838;2023-04-01T15:59:01;1.40;;;0.40;;
75820;SDS011;64454;51.984;9.838;2023-04-01T16:01:47;1.23;;;0.50;;
75820;SDS011;64454;51.984;9.838;2023-04-01T16:13:32;1.60;;;1.02;;
75820;SDS011;64454;51.984;9.838;2023-04-01T16:16:17;1.90;;;1.30;;
75820;SDS011;64454;51.984;9.838;2023-04-01T16:19:07;0.98;;;0.70;;
75820;SDS011;64454;51.984;9.838;2023-04-01T16:21:59;1.10;;;0.60;;
75820;SDS011;64454;51.984;9.838;2023-04-01T16:24:34;1.08;;;0.80;;
75820;SDS011;64454;51.984;9.838;2023-04-01T16:27:11;3.42;;;1.70;;
75820;SDS011;64454;51.984;9.838;2023-04-01T16:29:45;2.10;;;1.50;;
75820;SDS011;64454;51.984;9.838;2023-04-01T16:32:21;2.40;;;1.90;;
75820;SDS011;64454;51.984;9.838;2023-04-01T16:35:04;3.60;;;3.30;;
75820;SDS011;64454;51.984;9.838;2023-04-01T16:37:49;4.20;;;3.67;;
75820;SDS011;64454;51.984;9.838;2023-04-01T16:40:24;4.10;;;3.80;;
75820;SDS011;64454;51.984;9.838;2023-04-01T16:43:10;4.82;;;4.43;;
75820;SDS011;64454;51.984;9.838;2023-04-01T16:45:51;4.50;;;4.10;;
75820;SDS011;64454;51.984;9.838;2023-04-01T16:48:45;4.30;;;3.90;;
75820;SDS011;64454;51.984;9.838;2023-04-01T16:51:26;4.67;;;4.27;;
75820;SDS011;64454;51.984;9.838;2023-04-01T16:54:10;4.80;;;4.40;;
75820;SDS011;64454;51.984;9.838;2023-04-01T16:56:54;5.07;;;4.60;;
75820;SDS011;64454;51.984;9.838;2023-04-01T16:59:35;4.80;;;4.40;;
75820;SDS011;64454;51.984;9.838;2023-04-01T17:02:08;5.03;;;4.53;;
75820;SDS011;64454;51.984;9.838;2023-04-01T17:04:42;4.88;;;4.38;;
75820;SDS011;64454;51.984;9.838;2023-04-01T17:07:20;5.50;;;4.60;;
75820;SDS011;64454;51.984;9.838;2023-04-01T17:10:01;5.20;;;4.65;;
75820;SDS011;64454;51.984;9.838;2023-04-01T17:12:54;4.95;;;4.55;;
75820;SDS011;64454;51.984;9.838;2023-04-01T17:15:44;7.22;;;4.82;;
75820;SDS011;64454;51.984;9.838;2023-04-01T17:18:25;4.60;;;4.20;;
75820;SDS011;64454;51.984;9.838;2023-04-01T17:21:05;4.30;;;3.90;;
75820;SDS011;64454;51.984;9.838;2023-04-01T17:23:42;4.45;;;4.05;;
75820;SDS011;64454;51.984;9.838;2023-04-01T17:26:17;4.35;;;3.95;;
75820;SDS011;64454;51.984;9.838;2023-04-01T17:29:00;4.50;;;4.10;;
75820;SDS011;64454;51.984;9.838;2023-04-01T17:31:51;4.97;;;3.95;;
75820;SDS011;64454;51.984;9.838;2023-04-01T17:34:35;4.53;;;3.90;;